Time;durP1;ratioP1;P1;durP2;ratioP2;P2;SDS_P1;SDS_P2;PMS_P1;PMS_P2;Temp;Humidity;BMP_temperature;BMP_pressure;BME280_temperature;BME280_humidity;BME280_pressure;Samples;Min_cycle;Max_cycle;Signal;HPM_P1;HPM_P2
2022/07/07 00:01:08;;;;;;;6.07;3.97;;;20.00;99.90;;;;;;5055117;28;20638;-81
2022/07/07 00:03:33;;;;;;;5.53;3.60;;;20.00;99.90;;;;;;5054869;28;20183;-80
2022/07/07 00:05:59;;;;;;;10.17;3.97;;;20.00;99.90;;;;;;5055054;28;20207;-80
2022/07/07 00:08:25;;;;;;;8.53;4.30;;;20.00;99.90;;;;;;5054720;28;20199;-80
2022/07/07 00:10:50;;;;;;;5.03;3.60;;;20.00;99.90;;;;;;5054457;28;20179;-80
2022/07/07 00:13:16;;;;;;;4.73;3.70;;;20.00;99.90;;;;;;5054880;28;20544;-80
2022/07/07 00:15:45;;;;;;;5.13;3.97;;;20.00;99.90;;;;;;5061529;28;20570;-81
2022/07/07 00:18:11;;;;;;;4.63;3.23;;;20.00;99.90;;;;;;5070645;28;20186;-81
2022/07/07 00:20:36;;;;;;;8.67;4.47;;;20.00;99.90;;;;;;5069438;28;20952;-81
2022/07/07 00:23:02;;;;;;;11.00;4.40;;;20.00;99.90;;;;;;5069170;28;20424;-81
2022/07/07 00:25:28;;;;;;;4.60;3.07;;;20.00;99.90;;;;;;5069872;28;20188;-81
2022/07/07 00:27:54;;;;;;;4.27;3.63;;;20.00;99.90;;;;;;5068098;28;20215;-81
2022/07/07 00:30:19;;;;;;;4.50;3.40;;;20.00;99.90;;;;;;5069998;28;20183;-81
2022/07/07 00:32:45;;;;;;;5.53;4.00;;;19.90;99.90;;;;;;5068834;28;20239;-81
2022/07/07 00:35:10;;;;;;;5.83;3.83;;;19.90;99.90;;;;;;5068970;28;20184;-82
2022/07/07 00:37:36;;;;;;;5.20;3.77;;;19.90;99.90;;;;;;5068785;28;20196;-81
2022/07/07 00:40:02;;;;;;;5.60;3.57;;;19.80;99.90;;;;;;5068588;28;20662;-81
2022/07/07 00:42:28;;;;;;;5.83;3.37;;;19.90;99.90;;;;;;5067613;28;20247;-81
2022/07/07 00:44:53;;;;;;;6.47;3.50;;;19.80;99.90;;;;;;5066366;28;20425;-81
2022/07/07 00:47:19;;;;;;;4.70;3.53;;;19.90;99.90;;;;;;5068033;28;20634;-81
2022/07/07 00:49:45;;;;;;;5.87;3.50;;;19.90;99.90;;;;;;5067990;28;20556;-81
2022/07/07 00:52:11;;;;;;;6.03;3.70;;;19.80;99.90;;;;;;5067375;28;20415;-81
2022/07/07 00:54:37;;;;;;;7.70;4.17;;;19.80;99.90;;;;;;5066726;28;20266;-81
2022/07/07 00:57:05;;;;;;;4.13;3.37;;;19.80;99.90;;;;;;5065695;28;20442;-81
2022/07/07 00:59:33;;;;;;;5.40;3.60;;;19.90;99.90;;;;;;5065208;28;20187;-81
2022/07/07 01:01:58;;;;;;;9.67;5.57;;;19.80;99.90;;;;;;5066507;28;20413;-81
2022/07/07 01:04:24;;;;;;;10.47;3.93;;;19.80;99.90;;;;;;5066252;28;20437;-81
2022/07/07 01:06:50;;;;;;;4.80;3.67;;;19.70;99.90;;;;;;5066235;28;20210;-81
2022/07/07 01:09:16;;;;;;;5.70;4.40;;;19.70;99.90;;;;;;5066190;28;20176;-81
2022/07/07 01:11:56;;;;;;;6.37;4.47;;;19.70;99.90;;;;;;5065640;28;20207;-81
2022/07/07 01:14:23;;;;;;;6.90;4.63;;;19.70;99.90;;;;;;5065853;28;20410;-81
2022/07/07 01:16:49;;;;;;;6.67;4.40;;;19.70;99.90;;;;;;5064732;28;20430;-81
2022/07/07 01:19:16;;;;;;;6.60;4.20;;;19.60;99.90;;;;;;5064726;28;20483;-81
2022/07/07 01:22:06;;;;;;;5.40;3.57;;;19.50;99.90;;;;;;5062792;28;20695;-81
2022/07/07 01:24:32;;;;;;;6.10;4.10;;;19.50;99.90;;;;;;5065180;28;20518;-81
2022/07/07 01:27:06;;;;;;;6.57;4.63;;;19.50;99.90;;;;;;5062561;28;20600;-81
2022/07/07 01:29:39;;;;;;;5.77;3.77;;;19.50;99.90;;;;;;5065402;28;20176;-81
2022/07/07 01:32:08;;;;;;;5.00;4.10;;;19.60;99.90;;;;;;5064379;28;20417;-81
2022/07/07 01:34:34;;;;;;;7.17;3.90;;;19.70;99.90;;;;;;5063252;28;20436;-81
2022/07/07 01:37:00;;;;;;;5.87;3.33;;;19.70;99.90;;;;;;5063524;28;20928;-81
2022/07/07 01:39:26;;;;;;;6.07;3.23;;;19.70;99.90;;;;;;5064074;28;20444;-81
2022/07/07 01:41:51;;;;;;;4.50;2.70;;;19.70;99.90;;;;;;5061626;28;20570;-81
2022/07/07 01:44:17;;;;;;;5.77;3.60;;;19.70;99.90;;;;;;5062537;28;20786;-81
2022/07/07 01:46:43;;;;;;;5.67;3.90;;;19.60;99.90;;;;;;5062499;28;20241;-81
2022/07/07 01:49:09;;;;;;;4.70;3.20;;;19.60;99.90;;;;;;5062488;28;20180;-81
2022/07/07 01:51:34;;;;;;;6.27;3.20;;;19.60;99.90;;;;;;5062206;28;20540;-81
2022/07/07 01:54:00;;;;;;;4.80;2.83;;;19.60;99.90;;;;;;5062170;28;20414;-81
2022/07/07 01:56:25;;;;;;;4.30;2.83;;;19.60;99.90;;;;;;5061798;28;20705;-81
2022/07/07 01:58:51;;;;;;;6.30;3.23;;;19.60;99.90;;;;;;5061945;28;20174;-81
2022/07/07 02:01:17;;;;;;;4.57;3.10;;;19.60;99.90;;;;;;5061115;28;20179;-81
2022/07/07 02:03:42;;;;;;;5.87;3.27;;;19.50;99.90;;;;;;5061719;28;20558;-81
2022/07/07 02:06:08;;;;;;;7.33;4.00;;;19.40;99.90;;;;;;5060486;28;20426;-81
2022/07/07 02:08:34;;;;;;;4.43;2.93;;;19.40;99.90;;;;;;5058975;28;20203;-81
2022/07/07 02:11:14;;;;;;;8.73;3.10;;;19.40;99.90;;;;;;5057839;28;20182;-81
2022/07/07 02:13:41;;;;;;;5.40;3.03;;;19.40;99.90;;;;;;5059242;28;20178;-81
2022/07/07 02:16:06;;;;;;;5.70;3.23;;;19.40;99.90;;;;;;5059008;28;20426;-81
2022/07/07 02:18:35;;;;;;;5.70;4.07;;;19.40;99.90;;;;;;5058324;28;20917;-81
2022/07/07 02:21:01;;;;;;;4.70;3.47;;;19.30;99.90;;;;;;5059790;28;20225;-81
2022/07/07 02:23:27;;;;;;;5.47;3.40;;;19.20;99.90;;;;;;5063758;28;20507;-81
2022/07/07 02:25:52;;;;;;;5.23;3.50;;;19.20;99.90;;;;;;5063091;28;20438;-81
2022/07/07 02:28:20;;;;;;;4.70;3.13;;;19.20;99.90;;;;;;5065172;28;20195;-81
2022/07/07 02:30:48;;;;;;;4.23;3.33;;;19.10;99.90;;;;;;5063027;28;20205;-81
2022/07/07 02:33:14;;;;;;;4.83;3.17;;;19.20;99.90;;;;;;5064955;28;20414;-81
2022/07/07 02:35:39;;;;;;;4.47;2.83;;;19.10;99.90;;;;;;5062952;28;20426;-81
2022/07/07 02:38:05;;;;;;;4.53;3.00;;;19.10;99.90;;;;;;5065294;28;20171;-81
2022/07/07 02:40:31;;;;;;;4.50;3.43;;;19.10;99.90;;;;;;5063196;28;20179;-81
2022/07/07 02:42:56;;;;;;;4.80;3.30;;;19.10;99.90;;;;;;5057184;28;20182;-81
2022/07/07 02:45:22;;;;;;;5.50;4.27;;;19.10;99.90;;;;;;5058622;28;20171;-80
2022/07/07 02:47:47;;;;;;;4.97;3.10;;;19.00;99.90;;;;;;5058164;28;20215;-81
2022/07/07 02:50:14;;;;;;;5.90;2.73;;;19.00;99.90;;;;;;5058830;28;20261;-81
2022/07/07 02:52:39;;;;;;;7.07;3.60;;;19.10;99.90;;;;;;5058505;28;20171;-81
2022/07/07 02:55:05;;;;;;;5.00;3.40;;;19.00;99.90;;;;;;5058516;28;20421;-81
2022/07/07 02:57:31;;;;;;;4.90;3.00;;;19.00;99.90;;;;;;5056986;28;20199;-81
2022/07/07 02:59:57;;;;;;;5.33;3.80;;;18.90;99.90;;;;;;5058537;28;20483;-81
2022/07/07 03:02:22;;;;;;;4.77;3.50;;;19.00;99.90;;;;;;5058562;28;20267;-81
2022/07/07 03:04:48;;;;;;;9.63;4.90;;;19.00;99.90;;;;;;5058409;28;20184;-81
2022/07/07 03:07:14;;;;;;;5.10;2.93;;;18.90;99.90;;;;;;5058027;28;20670;-81
2022/07/07 03:09:40;;;;;;;6.23;3.50;;;18.90;99.90;;;;;;5057318;28;20683;-81
2022/07/07 03:12:06;;;;;;;5.33;3.33;;;18.90;99.90;;;;;;5058514;28;20441;-80
2022/07/07 03:14:32;;;;;;;8.13;3.73;;;18.80;99.90;;;;;;5058538;28;20180;-81
2022/07/07 03:16:57;;;;;;;5.43;3.10;;;18.80;99.90;;;;;;5056648;28;20204;-81
2022/07/07 03:19:23;;;;;;;6.80;4.73;;;18.90;99.90;;;;;;5058405;28;20183;-81
2022/07/07 03:21:48;;;;;;;5.17;3.03;;;19.00;99.90;;;;;;5056708;28;20191;-81
2022/07/07 03:24:14;;;;;;;5.87;3.47;;;19.00;99.90;;;;;;5058444;28;20662;-80
2022/07/07 03:26:40;;;;;;;4.80;3.13;;;19.10;99.90;;;;;;5057833;28;20203;-81
2022/07/07 03:29:05;;;;;;;3.83;2.60;;;19.10;99.90;;;;;;5058124;28;20179;-81
2022/07/07 03:31:31;;;;;;;5.00;3.00;;;19.20;99.90;;;;;;5056860;28;20187;-81
2022/07/07 03:33:56;;;;;;;4.60;3.03;;;19.20;99.90;;;;;;5054813;28;20172;-81
2022/07/07 03:36:22;;;;;;;6.30;3.30;;;19.20;99.90;;;;;;5054673;28;20203;-81
2022/07/07 03:38:47;;;;;;;5.90;3.77;;;19.20;99.90;;;;;;5055022;28;20522;-81
2022/07/07 03:41:13;;;;;;;21.87;4.53;;;19.30;99.90;;;;;;5054072;28;20562;-80
2022/07/07 03:43:38;;;;;;;3.83;2.90;;;19.20;99.90;;;;;;5054825;28;20180;-81
2022/07/07 03:46:04;;;;;;;4.13;3.07;;;19.20;99.90;;;;;;5054424;28;20219;-81
2022/07/07 03:48:30;;;;;;;3.90;2.37;;;19.10;99.90;;;;;;5079647;22;20227;-78
2022/07/07 03:50:56;;;;;;;3.93;2.37;;;19.20;99.90;;;;;;5036281;28;20171;-79
2022/07/07 03:53:22;;;;;;;4.83;2.87;;;19.20;99.90;;;;;;5036249;28;20410;-78
2022/07/07 03:55:48;;;;;;;5.50;2.87;;;19.10;99.90;;;;;;5035975;28;20501;-79
2022/07/07 03:58:13;;;;;;;5.87;2.70;;;19.10;99.90;;;;;;5036042;28;20207;-78
2022/07/07 04:00:39;;;;;;;4.53;2.70;;;19.00;99.90;;;;;;5036264;28;20270;-78
2022/07/07 04:03:05;;;;;;;4.77;2.60;;;19.00;99.90;;;;;;5036135;28;20657;-78
2022/07/07 04:05:31;;;;;;;4.53;2.60;;;19.00;99.90;;;;;;5035960;28;20171;-78
2022/07/07 04:07:57;;;;;;;3.67;2.43;;;19.00;99.90;;;;;;5035560;28;20211;-78
2022/07/07 04:10:22;;;;;;;4.50;2.87;;;18.90;99.90;;;;;;5036031;28;20258;-79
2022/07/07 04:12:48;;;;;;;4.30;2.60;;;18.80;99.90;;;;;;5019494;28;20183;-78
2022/07/07 04:15:14;;;;;;;6.03;2.97;;;18.70;99.90;;;;;;5035954;28;20183;-78
2022/07/07 04:17:40;;;;;;;3.90;2.70;;;18.60;99.90;;;;;;5035474;28;20206;-78
2022/07/07 04:20:06;;;;;;;3.70;2.50;;;18.70;99.90;;;;;;5035731;28;20186;-78
2022/07/07 04:22:32;;;;;;;5.03;3.37;;;18.70;99.90;;;;;;5035626;28;20267;-78
2022/07/07 04:24:57;;;;;;;3.97;2.73;;;18.60;99.90;;;;;;5035740;28;20529;-78
2022/07/07 04:27:23;;;;;;;4.33;2.53;;;18.60;99.90;;;;;;5035122;28;20212;-78
2022/07/07 04:29:49;;;;;;;5.90;2.80;;;18.60;99.90;;;;;;5035622;28;20180;-78
2022/07/07 04:32:15;;;;;;;5.07;2.80;;;18.60;99.90;;;;;;5035535;28;20557;-78
2022/07/07 04:34:41;;;;;;;5.27;3.60;;;18.70;99.90;;;;;;5035630;28;20182;-78
2022/07/07 04:37:06;;;;;;;6.23;3.00;;;18.70;99.90;;;;;;5035503;28;20450;-78
2022/07/07 04:39:32;;;;;;;5.80;2.43;;;18.80;99.90;;;;;;5035658;28;20184;-78
2022/07/07 04:41:58;;;;;;;4.90;3.27;;;18.80;99.90;;;;;;5035320;28;20630;-78
2022/07/07 04:44:24;;;;;;;4.87;2.57;;;18.90;99.90;;;;;;5035243;28;20190;-78
2022/07/07 04:46:50;;;;;;;6.83;3.50;;;18.90;99.90;;;;;;5034973;28;20294;-78
2022/07/07 04:49:16;;;;;;;5.47;3.03;;;18.90;99.90;;;;;;5034993;28;20541;-78
2022/07/07 04:51:41;;;;;;;4.80;3.40;;;18.90;99.90;;;;;;5035262;28;20186;-79
2022/07/07 04:54:07;;;;;;;4.90;3.63;;;18.90;99.90;;;;;;5035164;28;20234;-78
2022/07/07 04:56:33;;;;;;;5.07;3.03;;;18.90;99.90;;;;;;5034811;28;20212;-78
2022/07/07 04:58:59;;;;;;;4.63;3.40;;;19.00;99.90;;;;;;5035023;28;20179;-78
2022/07/07 05:01:24;;;;;;;6.73;3.63;;;19.00;99.90;;;;;;5035233;28;20180;-78
2022/07/07 05:03:50;;;;;;;4.70;3.03;;;19.00;99.90;;;;;;5034905;28;20310;-78
2022/07/07 05:06:16;;;;;;;8.30;2.87;;;19.00;99.90;;;;;;5034725;28;20591;-79
2022/07/07 05:08:42;;;;;;;8.57;2.83;;;19.00;99.90;;;;;;5034689;28;20223;-78
2022/07/07 05:11:07;;;;;;;5.27;3.30;;;19.00;99.90;;;;;;5034891;28;20266;-78
2022/07/07 05:13:34;;;;;;;4.37;2.53;;;19.00;99.90;;;;;;5034835;28;20535;-79
2022/07/07 05:16:00;;;;;;;5.90;2.93;;;19.10;99.90;;;;;;5034561;28;20175;-78
2022/07/07 05:18:25;;;;;;;5.30;3.10;;;19.00;99.90;;;;;;5034457;28;20444;-78
2022/07/07 05:20:51;;;;;;;5.30;3.67;;;18.80;99.90;;;;;;5034953;28;20685;-78
2022/07/07 05:23:17;;;;;;;5.67;3.23;;;18.70;99.90;;;;;;5034698;28;20215;-78
2022/07/07 05:25:43;;;;;;;5.33;3.30;;;18.60;99.90;;;;;;5034279;28;20184;-78
2022/07/07 05:28:08;;;;;;;5.57;3.20;;;18.40;99.90;;;;;;5034226;28;20220;-78
2022/07/07 05:30:34;;;;;;;7.73;3.40;;;18.40;99.90;;;;;;5034543;28;20453;-78
2022/07/07 05:33:00;;;;;;;4.53;3.10;;;18.40;99.90;;;;;;5034238;28;20179;-78
2022/07/07 05:35:25;;;;;;;6.50;2.90;;;18.50;99.90;;;;;;5034474;28;20263;-78
2022/07/07 05:37:51;;;;;;;3.80;2.20;;;18.50;99.90;;;;;;5034284;28;20200;-78
2022/07/07 05:40:17;;;;;;;4.87;2.23;;;18.40;99.90;;;;;;5034315;28;20183;-78
2022/07/07 05:42:43;;;;;;;5.93;2.43;;;18.40;99.90;;;;;;5034357;28;20701;-78
2022/07/07 05:45:10;;;;;;;6.17;3.30;;;18.50;99.90;;;;;;5034269;28;20275;-79
2022/07/07 05:47:36;;;;;;;5.73;3.10;;;18.50;99.90;;;;;;5033557;28;20246;-78
2022/07/07 05:50:01;;;;;;;5.80;2.97;;;18.40;99.90;;;;;;5034128;28;20860;-78
2022/07/07 05:52:27;;;;;;;5.87;4.10;;;18.20;99.90;;;;;;5034168;28;20185;-78
2022/07/07 05:54:53;;;;;;;7.43;3.77;;;17.90;99.90;;;;;;5034034;28;20182;-78
2022/07/07 05:57:19;;;;;;;11.47;5.33;;;17.70;99.90;;;;;;5033346;28;20645;-78
2022/07/07 05:59:45;;;;;;;7.67;4.10;;;17.60;99.90;;;;;;5034306;28;20215;-79
2022/07/07 06:02:10;;;;;;;5.23;3.60;;;17.50;99.90;;;;;;5034176;28;20187;-78
2022/07/07 06:04:36;;;;;;;3.83;2.80;;;17.40;99.90;;;;;;5034076;28;20186;-78
2022/07/07 06:07:02;;;;;;;6.43;3.13;;;17.30;99.90;;;;;;5034122;28;20265;-78
2022/07/07 06:09:28;;;;;;;4.10;2.70;;;17.30;99.90;;;;;;5034278;28;20175;-78
2022/07/07 06:11:54;;;;;;;3.87;3.00;;;17.30;99.90;;;;;;5034403;28;20952;-78
2022/07/07 06:14:19;;;;;;;4.10;2.90;;;17.20;99.90;;;;;;5034062;28;20186;-78
2022/07/07 06:16:45;;;;;;;8.00;3.23;;;17.20;99.90;;;;;;5033458;28;20183;-78
2022/07/07 06:19:13;;;;;;;3.53;2.43;;;17.10;99.90;;;;;;5033915;28;20418;-78
2022/07/07 06:21:40;;;;;;;5.40;2.90;;;17.10;99.90;;;;;;5033982;28;20182;-78
2022/07/07 06:24:07;;;;;;;5.20;3.67;;;17.10;99.90;;;;;;5033696;28;20506;-78
2022/07/07 06:26:33;;;;;;;3.83;2.63;;;17.30;99.90;;;;;;5033501;28;20418;-78
2022/07/07 06:28:58;;;;;;;4.23;2.63;;;17.40;99.90;;;;;;5033531;28;20442;-79
2022/07/07 06:31:24;;;;;;;4.70;2.83;;;17.50;99.90;;;;;;5033670;28;20262;-78
2022/07/07 06:33:50;;;;;;;3.90;2.67;;;17.50;99.90;;;;;;5033676;28;20576;-78
2022/07/07 06:36:16;;;;;;;4.97;3.03;;;17.50;99.90;;;;;;5033369;28;20517;-78
2022/07/07 06:38:42;;;;;;;4.90;3.20;;;17.60;99.90;;;;;;5033462;28;20604;-78
2022/07/07 06:41:08;;;;;;;4.30;2.90;;;17.70;99.90;;;;;;5033537;28;20230;-79
2022/07/07 06:43:33;;;;;;;6.80;4.27;;;17.90;99.90;;;;;;5033527;28;20215;-78
2022/07/07 06:45:59;;;;;;;4.53;3.17;;;18.10;99.90;;;;;;5033153;28;20426;-78
2022/07/07 06:48:25;;;;;;;5.13;3.40;;;18.20;99.90;;;;;;5033162;28;20265;-78
2022/07/07 06:50:51;;;;;;;4.87;3.07;;;18.40;99.90;;;;;;5033601;28;20218;-79
2022/07/07 06:53:17;;;;;;;5.50;2.80;;;18.40;99.90;;;;;;5033459;28;20183;-78
2022/07/07 06:55:43;;;;;;;5.33;3.00;;;18.50;99.90;;;;;;5033183;28;20172;-79
2022/07/07 06:58:09;;;;;;;3.73;2.90;;;18.50;99.90;;;;;;5033274;28;20964;-78
2022/07/07 07:00:35;;;;;;;4.03;3.00;;;18.50;99.90;;;;;;5033450;28;20211;-78
2022/07/07 07:03:01;;;;;;;3.87;2.47;;;18.50;99.90;;;;;;5033544;28;20699;-78
2022/07/07 07:05:26;;;;;;;3.50;2.70;;;18.40;99.90;;;;;;5033289;28;20191;-78
2022/07/07 07:07:52;;;;;;;3.13;2.30;;;18.40;99.90;;;;;;5033159;28;20835;-78
2022/07/07 07:10:18;;;;;;;3.77;2.00;;;18.30;99.90;;;;;;5037109;28;20176;-78
2022/07/07 07:12:44;;;;;;;3.30;2.20;;;18.20;99.90;;;;;;5037232;28;20414;-78
2022/07/07 07:15:10;;;;;;;3.70;2.27;;;18.30;99.90;;;;;;5036905;28;20429;-78
2022/07/07 07:17:36;;;;;;;3.03;1.80;;;18.30;99.90;;;;;;5036708;28;20980;-78
2022/07/07 07:20:04;;;;;;;3.20;1.90;;;18.60;99.90;;;;;;5037040;28;20929;-78
2022/07/07 07:22:39;;;;;;;2.80;1.50;;;18.70;99.90;;;;;;5036952;28;20418;-78
2022/07/07 07:25:06;;;;;;;4.53;1.80;;;19.00;99.90;;;;;;5036919;28;20843;-78
2022/07/07 07:27:33;;;;;;;2.60;1.67;;;19.20;99.90;;;;;;5036426;28;20465;-78
2022/07/07 07:29:59;;;;;;;2.60;1.50;;;19.20;99.90;;;;;;5037077;28;20799;-78
2022/07/07 07:32:25;;;;;;;3.33;2.40;;;19.20;99.90;;;;;;5036925;28;20420;-78
2022/07/07 07:34:51;;;;;;;3.53;1.63;;;19.50;99.90;;;;;;5036812;28;20176;-78
2022/07/07 07:37:16;;;;;;;3.77;1.90;;;19.30;99.90;;;;;;5036552;28;20203;-78
2022/07/07 07:39:42;;;;;;;4.73;1.90;;;19.00;99.90;;;;;;5036891;28;20241;-78
2022/07/07 07:42:08;;;;;;;3.40;1.90;;;19.10;99.90;;;;;;5036497;28;20184;-79
2022/07/07 07:47:18;;;;;;;5.80;3.40;;;19.50;99.90;;;;;;5054217;28;20231;-78
2022/07/07 07:49:44;;;;;;;3.23;1.60;;;19.50;99.90;;;;;;5036381;28;20417;-78
2022/07/07 07:52:09;;;;;;;7.33;2.10;;;19.40;99.90;;;;;;5036302;28;20233;-78
2022/07/07 07:54:35;;;;;;;2.93;1.67;;;19.40;99.90;;;;;;5036309;28;20176;-78
2022/07/07 07:57:01;;;;;;;2.30;1.10;;;19.80;99.90;;;;;;5036021;28;20199;-78
2022/07/07 07:59:27;;;;;;;2.37;1.10;;;19.90;99.90;;;;;;5036560;28;20182;-78
2022/07/07 08:01:53;;;;;;;4.23;1.27;;;19.90;99.90;;;;;;5036315;28;20916;-78
2022/07/07 08:04:22;;;;;;;2.00;0.90;;;19.50;99.90;;;;;;5036094;28;20262;-78
2022/07/07 08:06:48;;;;;;;2.80;1.50;;;19.00;99.90;;;;;;5035718;28;20183;-78
2022/07/07 08:09:13;;;;;;;5.70;1.50;;;18.80;99.90;;;;;;5035786;28;20422;-78
2022/07/07 08:11:39;;;;;;;3.20;1.40;;;18.60;99.90;;;;;;5036039;28;20263;-78
2022/07/07 08:14:05;;;;;;;3.57;1.80;;;18.60;99.90;;;;;;5035901;28;20176;-78
2022/07/07 08:16:31;;;;;;;5.10;1.67;;;18.80;99.90;;;;;;5035596;28;20214;-78
2022/07/07 08:18:56;;;;;;;4.30;1.17;;;19.00;99.90;;;;;;5035347;28;20227;-78
2022/07/07 08:21:22;;;;;;;3.90;2.00;;;19.20;99.90;;;;;;5035852;28;20426;-78
2022/07/07 08:23:48;;;;;;;3.83;1.37;;;19.20;99.90;;;;;;5035670;28;20192;-78
2022/07/07 08:26:14;;;;;;;2.30;1.50;;;19.20;99.90;;;;;;5035465;28;20265;-78
2022/07/07 08:28:40;;;;;;;4.50;1.70;;;19.60;99.90;;;;;;5035589;28;20590;-78
2022/07/07 08:31:09;;;;;;;4.67;1.50;;;19.70;99.90;;;;;;5035718;28;20271;-78
2022/07/07 08:33:35;;;;;;;2.50;1.30;;;19.50;99.90;;;;;;5035615;28;20437;-78
2022/07/07 08:36:01;;;;;;;2.77;1.40;;;19.60;99.90;;;;;;5035373;28;20421;-78
2022/07/07 08:38:27;;;;;;;2.43;1.27;;;19.90;99.90;;;;;;5035314;28;20469;-78
2022/07/07 08:40:53;;;;;;;5.90;2.20;;;20.30;99.90;;;;;;5035409;28;20960;-78
2022/07/07 08:43:19;;;;;;;4.90;1.83;;;20.60;99.90;;;;;;5035755;28;20422;-78
2022/07/07 08:45:48;;;;;;;3.10;1.47;;;20.70;99.90;;;;;;5035304;28;20426;-78
2022/07/07 08:48:14;;;;;;;5.07;1.83;;;21.10;99.90;;;;;;5035288;28;20628;-78
2022/07/07 08:50:40;;;;;;;4.73;1.40;;;21.40;99.90;;;;;;5035522;28;20560;-78
2022/07/07 08:53:08;;;;;;;3.43;1.53;;;21.40;99.90;;;;;;5035684;28;20184;-78
2022/07/07 08:55:36;;;;;;;5.47;1.70;;;21.10;99.90;;;;;;5035144;28;20552;-78
2022/07/07 08:58:04;;;;;;;8.23;2.20;;;20.50;99.90;;;;;;5035247;28;20450;-78
2022/07/07 09:00:29;;;;;;;10.87;1.83;;;19.80;99.90;;;;;;5035089;28;20410;-78
2022/07/07 09:02:58;;;;;;;4.17;2.10;;;19.40;99.90;;;;;;5035278;28;20456;-78
2022/07/07 09:05:27;;;;;;;3.13;2.10;;;19.10;99.90;;;;;;5034822;28;20187;-78
2022/07/07 09:07:53;;;;;;;2.90;1.37;;;19.10;99.90;;;;;;5034889;28;20474;-78
2022/07/07 09:10:33;;;;;;;5.30;1.70;;;19.20;99.90;;;;;;5035122;28;20507;-78
2022/07/07 09:13:00;;;;;;;3.57;1.70;;;19.50;99.90;;;;;;5035090;28;20426;-78
2022/07/07 09:15:27;;;;;;;3.40;1.67;;;19.70;99.90;;;;;;5034717;28;20445;-78
2022/07/07 09:17:54;;;;;;;6.63;1.87;;;20.10;99.90;;;;;;5034568;28;20437;-78
2022/07/07 09:20:19;;;;;;;3.30;1.50;;;21.60;99.90;;;;;;5034891;28;20509;-78
2022/07/07 09:22:48;;;;;;;3.00;1.60;;;23.10;99.90;;;;;;5035018;28;20862;-78
2022/07/07 09:25:23;;;;;;;2.63;1.20;;;24.30;99.90;;;;;;5035508;28;20561;-78
2022/07/07 09:28:02;;;;;;;6.57;1.50;;;23.40;99.90;;;;;;5034830;28;20996;-78
2022/07/07 09:30:36;;;;;;;3.60;1.70;;;22.60;99.90;;;;;;5034192;28;20417;-78
2022/07/07 09:33:07;;;;;;;5.67;1.73;;;21.60;99.90;;;;;;5034342;28;20422;-78
2022/07/07 09:38:23;;;;;;;3.17;1.60;;;20.80;99.90;;;;;;5052689;28;20843;-78
2022/07/07 09:40:52;;;;;;;7.00;1.53;;;20.50;99.90;;;;;;5034517;28;20843;-78
2022/07/07 09:43:19;;;;;;;3.60;1.50;;;20.50;99.90;;;;;;5034695;28;20983;-78
2022/07/07 09:46:12;;;;;;;2.63;1.23;;;20.40;99.90;;;;;;5034152;28;20901;-78
2022/07/07 09:48:41;;;;;;;4.50;1.20;;;20.30;99.90;;;;;;5049121;22;20469;-82
2022/07/07 09:51:16;;;;;;;3.80;1.40;;;21.00;99.90;;;;;;5042846;28;20490;-79
2022/07/07 09:54:07;;;;;;;2.47;1.27;;;21.90;99.90;;;;;;5042108;28;20414;-79
2022/07/07 09:56:40;;;;;;;2.57;1.30;;;22.00;99.90;;;;;;5042552;28;20864;-83
2022/07/07 09:59:12;;;;;;;2.70;1.10;;;21.90;99.90;;;;;;5038927;28;20419;-79
2022/07/07 10:01:41;;;;;;;5.20;1.27;;;21.70;99.90;;;;;;5038318;28;20426;-79
2022/07/07 10:04:09;;;;;;;4.10;1.73;;;21.70;99.90;;;;;;5037644;28;20790;-79
2022/07/07 10:06:37;;;;;;;2.10;0.90;;;21.40;99.90;;;;;;5037538;28;20457;-80
2022/07/07 10:09:05;;;;;;;3.97;1.17;;;21.30;99.90;;;;;;5036994;28;20467;-80
2022/07/07 10:11:38;;;;;;;3.07;1.83;;;21.50;99.90;;;;;;5038664;28;20915;-79
2022/07/07 10:14:34;;;;;;;4.40;1.10;;;22.40;99.90;;;;;;5020165;28;20430;-79
2022/07/07 10:17:01;;;;;;;3.63;1.00;;;24.40;99.90;;;;;;5036062;28;20442;-82
2022/07/07 10:19:27;;;;;;;2.63;1.20;;;24.80;99.90;;;;;;5036263;28;20423;-82
2022/07/07 10:21:58;;;;;;;4.10;1.40;;;24.40;99.90;;;;;;5037972;28;20403;-81
2022/07/07 10:24:29;;;;;;;2.53;1.10;;;23.90;99.90;;;;;;5036022;28;20230;-81
2022/07/07 10:27:00;;;;;;;2.47;1.00;;;24.00;99.90;;;;;;5035424;28;20807;-82
2022/07/07 10:29:51;;;;;;;3.50;1.03;;;24.10;99.90;;;;;;5035354;28;20423;-78
2022/07/07 10:32:37;;;;;;;5.20;1.10;;;24.90;99.90;;;;;;5036166;28;20442;-78
2022/07/07 10:35:14;;;;;;;3.57;1.23;;;25.80;99.90;;;;;;5008320;28;20411;-80
2022/07/07 10:37:42;;;;;;;2.47;0.93;;;25.10;99.90;;;;;;5039892;28;20442;-81
2022/07/07 10:40:19;;;;;;;2.63;1.10;;;24.20;99.90;;;;;;5037577;28;20482;-79
2022/07/07 10:43:03;;;;;;;4.53;0.97;;;23.40;99.90;;;;;;5036589;28;20457;-81
2022/07/07 10:45:30;;;;;;;3.03;1.50;;;23.40;99.90;;;;;;5021399;28;20415;-79
2022/07/07 10:47:56;;;;;;;2.60;1.10;;;23.10;99.90;;;;;;5038164;28;20466;-79
2022/07/07 10:50:26;;;;;;;2.40;1.00;;;22.60;99.90;;;;;;5037670;28;21021;-79
2022/07/07 10:52:53;;;;;;;2.30;1.20;;;22.10;99.90;;;;;;5021452;28;20267;-81
2022/07/07 10:55:19;;;;;;;2.50;1.03;;;21.70;99.90;;;;;;5037178;28;20415;-80
2022/07/07 10:57:47;;;;;;;3.00;1.10;;;22.00;99.90;;;;;;5037592;28;20753;-79
2022/07/07 11:00:18;;;;;;;2.70;1.10;;;22.40;99.90;;;;;;5037522;28;20508;-80
2022/07/07 11:02:47;;;;;;;2.50;1.20;;;23.00;99.90;;;;;;5020385;28;20446;-79
2022/07/07 11:05:13;;;;;;;3.30;1.37;;;23.10;99.90;;;;;;5037109;28;20422;-80
2022/07/07 11:07:40;;;;;;;3.20;1.50;;;22.80;99.90;;;;;;5019482;28;20463;-80
2022/07/07 11:10:10;;;;;;;3.57;1.50;;;22.40;99.90;;;;;;5036730;28;20180;-79
2022/07/07 11:12:51;;;;;;;3.83;1.60;;;21.80;99.90;;;;;;5036230;28;20422;-79
2022/07/07 11:15:23;;;;;;;2.40;1.40;;;21.30;99.90;;;;;;5036396;28;20501;-80
2022/07/07 11:18:07;;;;;;;5.73;1.90;;;20.60;99.90;;;;;;5018899;28;20438;-81
2022/07/07 11:20:33;;;;;;;3.23;1.70;;;19.90;99.90;;;;;;5035490;28;20434;-80
2022/07/07 11:23:10;;;;;;;4.20;1.60;;;19.50;99.90;;;;;;5035578;28;20621;-81
2022/07/07 11:25:38;;;;;;;4.20;1.90;;;19.20;99.90;;;;;;5035078;28;20536;-79
2022/07/07 11:28:05;;;;;;;2.90;1.50;;;19.10;99.90;;;;;;5034921;28;20493;-79
2022/07/07 11:30:31;;;;;;;3.13;2.00;;;19.00;99.90;;;;;;5035332;28;20415;-80
2022/07/07 11:32:59;;;;;;;2.80;1.30;;;19.20;99.90;;;;;;5034803;28;20425;-80
2022/07/07 11:35:36;;;;;;;2.93;1.40;;;19.50;99.90;;;;;;5035006;28;20938;-79
2022/07/07 11:38:05;;;;;;;4.63;1.40;;;20.00;99.90;;;;;;5034715;28;20477;-78
2022/07/07 11:40:31;;;;;;;3.60;1.20;;;20.60;99.90;;;;;;5035225;28;20509;-79
2022/07/07 11:43:01;;;;;;;3.43;2.00;;;21.40;99.90;;;;;;5034816;28;20427;-79
2022/07/07 11:45:29;;;;;;;4.00;1.73;;;21.90;99.90;;;;;;5045077;28;20423;-80
2022/07/07 11:48:03;;;;;;;4.00;2.17;;;22.40;99.90;;;;;;5043464;28;20534;-81
2022/07/07 11:50:33;;;;;;;4.87;1.27;;;22.40;99.90;;;;;;5042975;28;20441;-80
2022/07/07 11:53:02;;;;;;;2.30;1.20;;;22.10;99.90;;;;;;5043239;28;20426;-80
2022/07/07 11:55:29;;;;;;;2.30;1.00;;;21.80;99.90;;;;;;5041316;28;20407;-78
2022/07/07 11:58:03;;;;;;;4.47;1.30;;;21.80;99.90;;;;;;5041616;28;20467;-80
2022/07/07 12:00:34;;;;;;;5.40;1.30;;;21.60;99.90;;;;;;5041374;28;20441;-80
2022/07/07 12:03:02;;;;;;;2.80;1.20;;;21.30;99.90;;;;;;5041510;28;20450;-80
2022/07/07 12:05:32;;;;;;;3.13;1.43;;;21.10;99.90;;;;;;5040879;28;20955;-79
2022/07/07 12:08:05;;;;;;;4.00;1.47;;;20.90;99.90;;;;;;5040168;28;20890;-79
2022/07/07 12:10:32;;;;;;;2.93;1.30;;;20.90;99.90;;;;;;5040593;28;20423;-81
2022/07/07 12:13:01;;;;;;;4.10;1.37;;;21.10;99.90;;;;;;5023587;28;20453;-80
2022/07/07 12:15:39;;;;;;;2.70;1.07;;;21.30;99.90;;;;;;5039091;28;20464;-81
2022/07/07 12:18:06;;;;;;;3.40;1.70;;;21.60;99.90;;;;;;5021921;28;20454;-80
2022/07/07 12:20:33;;;;;;;5.23;1.70;;;22.00;99.90;;;;;;5038135;28;20423;-80
2022/07/07 12:23:00;;;;;;;4.30;1.50;;;22.10;99.90;;;;;;5037538;28;21017;-80
2022/07/07 12:25:28;;;;;;;3.67;1.30;;;22.10;99.90;;;;;;5037825;28;20477;-78
2022/07/07 12:27:55;;;;;;;3.13;1.43;;;22.20;99.90;;;;;;5039910;28;21126;-81
2022/07/07 12:30:22;;;;;;;5.80;1.70;;;22.20;99.90;;;;;;5026633;28;20812;-80
2022/07/07 12:32:48;;;;;;;4.47;1.70;;;22.40;99.90;;;;;;5035106;28;21003;-81
2022/07/07 12:35:28;;;;;;;3.83;1.60;;;22.70;99.90;;;;;;5033169;28;20655;-80
2022/07/07 12:37:54;;;;;;;5.10;2.53;;;22.80;99.90;;;;;;5015843;28;20212;-80
2022/07/07 12:40:22;;;;;;;4.27;1.63;;;22.50;99.90;;;;;;5032687;28;20430;-78
2022/07/07 12:42:48;;;;;;;4.53;2.17;;;22.30;99.90;;;;;;5032542;28;20191;-78
2022/07/07 12:45:18;;;;;;;2.43;1.40;;;22.00;99.90;;;;;;5032483;28;20485;-78
2022/07/07 12:47:45;;;;;;;2.50;1.50;;;21.70;99.90;;;;;;5032246;28;20559;-78
2022/07/07 12:50:11;;;;;;;4.17;1.50;;;21.40;99.90;;;;;;5016081;28;20447;-78
2022/07/07 12:52:37;;;;;;;8.30;1.93;;;21.60;99.90;;;;;;5032508;28;20774;-79